TimeEDT,TemperatureF,Dew PointF,Humidity,Sea Level PressureIn,VisibilityMPH,Wind Direction,Wind SpeedMPH,Gust SpeedMPH,PrecipitationIn,Events,Conditions,WindDirDegrees,DateUTC
12:53 AM,55.0,39.0,55,29.90,10.0,SW,6.9,-,N/A,,Clear,220,2014-04-26 04:53:00
1:53 AM,54.0,41.0,62,29.89,10.0,SSW,6.9,-,N/A,,Clear,200,2014-04-26 05:53:00
2:53 AM,53.1,42.1,66,29.87,10.0,SW,10.4,-,N/A,,Clear,220,2014-04-26 06:53:00
3:53 AM,55.9,42.1,60,29.87,10.0,SW,10.4,-,N/A,,Clear,230,2014-04-26 07:53:00
4:53 AM,54.0,42.1,64,29.87,10.0,SW,8.1,-,N/A,,Clear,230,2014-04-26 08:53:00
5:53 AM,53.1,42.1,66,29.88,10.0,SW,8.1,-,N/A,,Clear,230,2014-04-26 09:53:00
6:53 AM,55.9,41.0,57,29.88,10.0,SW,11.5,-,N/A,,Partly Cloudy,230,2014-04-26 10:53:00
7:53 AM,55.9,43.0,62,29.92,10.0,NNW,5.8,-,N/A,,Clear,330,2014-04-26 11:53:00
8:53 AM,61.0,43.0,52,29.93,10.0,Calm,Calm,-,N/A,,Clear,0,2014-04-26 12:53:00
9:53 AM,66.0,45.0,47,29.92,10.0,West,10.4,-,N/A,,Clear,260,2014-04-26 13:53:00
10:53 AM,66.9,46.0,47,29.91,10.0,West,12.7,18.4,N/A,,Clear,260,2014-04-26 14:53:00
11:53 AM,72.0,46.9,41,29.92,10.0,West,11.5,-,N/A,,Clear,280,2014-04-26 15:53:00
12:53 PM,73.9,46.9,38,29.91,10.0,West,10.4,-,N/A,,Clear,270,2014-04-26 16:53:00
1:53 PM,77.0,46.9,34,29.89,10.0,WNW,11.5,-,N/A,,Clear,290,2014-04-26 17:53:00
2:53 PM,79.0,46.9,32,29.89,10.0,WNW,9.2,19.6,N/A,,Clear,290,2014-04-26 18:53:00
3:53 PM,80.1,46.9,31,29.88,10.0,WNW,11.5,17.3,N/A,,Clear,300,2014-04-26 19:53:00
4:53 PM,81.0,42.1,25,29.86,10.0,WNW,13.8,-,N/A,,Clear,290,2014-04-26 20:53:00
5:53 PM,79.0,42.1,27,29.87,10.0,WNW,10.4,-,N/A,,Clear,290,2014-04-26 21:53:00
6:53 PM,73.9,51.1,45,29.88,10.0,North,8.1,-,N/A,,Partly Cloudy,350,2014-04-26 22:53:00
7:53 PM,72.0,46.9,41,29.88,10.0,NNE,6.9,-,N/A,,Clear,20,2014-04-26 23:53:00
8:53 PM,68.0,46.0,45,29.89,10.0,NNE,6.9,-,N/A,,Clear,30,2014-04-27 00:53:00
9:53 PM,64.9,45.0,48,29.91,10.0,NNE,6.9,-,N/A,,Clear,30,2014-04-27 01:53:00
10:53 PM,62.1,42.1,48,29.93,10.0,NE,15.0,-,N/A,,Clear,50,2014-04-27 02:53:00
11:53 PM,59.0,42.1,53,29.94,10.0,ENE,8.1,-,N/A,,Clear,70,2014-04-27 03:53:00